sensor_id;sensor_type;location;lat;lon;timestamp;P1;durP1;ratioP1;P2;durP2;ratioP2
63738;SDS011;68816;45.558;10.070;2023-07-16T00:01:55;14.15;;;10.38;;
63738;SDS011;68816;45.558;10.070;2023-07-16T00:04:21;14.63;;;11.20;;
63738;SDS011;68816;45.558;10.070;2023-07-16T00:06:47;12.77;;;10.55;;
63738;SDS011;68816;45.558;10.070;2023-07-16T00:09:12;11.23;;;9.75;;
63738;SDS011;68816;45.558;10.070;2023-07-16T00:11:38;14.05;;;10.10;;
63738;SDS011;68816;45.558;10.070;2023-07-16T00:14:04;13.85;;;9.70;;
63738;SDS011;68816;45.558;10.070;2023-07-16T00:16:30;12.77;;;10.02;;
63738;SDS011;68816;45.558;10.070;2023-07-16T00:18:55;11.38;;;10.07;;
63738;SDS011;68816;45.558;10.070;2023-07-16T00:21:21;15.93;;;10.05;;
63738;SDS011;68816;45.558;10.070;2023-07-16T00:23:47;14.60;;;9.95;;
63738;SDS011;68816;45.558;10.070;2023-07-16T00:26:12;13.48;;;10.48;;
63738;SDS011;68816;45.558;10.070;2023-07-16T00:28:39;12.55;;;10.45;;
63738;SDS011;68816;45.558;10.070;2023-07-16T00:31:04;12.05;;;9.68;;
63738;SDS011;68816;45.558;10.070;2023-07-16T00:33:30;15.57;;;10.18;;
63738;SDS011;68816;45.558;10.070;2023-07-16T00:35:55;14.77;;;10.05;;
63738;SDS011;68816;45.558;10.070;2023-07-16T00:38:21;11.93;;;9.77;;
63738;SDS011;68816;45.558;10.070;2023-07-16T00:40:47;11.60;;;10.00;;
63738;SDS011;68816;45.558;10.070;2023-07-16T00:43:12;13.25;;;9.68;;
63738;SDS011;68816;45.558;10.070;2023-07-16T00:45:39;13.35;;;9.13;;
63738;SDS011;68816;45.558;10.070;2023-07-16T00:48:06;13.02;;;10.18;;
63738;SDS011;68816;45.558;10.070;2023-07-16T00:50:32;11.15;;;9.90;;
63738;SDS011;68816;45.558;10.070;2023-07-16T00:53:02;14.38;;;9.88;;
63738;SDS011;68816;45.558;10.070;2023-07-16T00:55:29;13.00;;;10.38;;
63738;SDS011;68816;45.558;10.070;2023-07-16T00:57:55;13.35;;;9.88;;
63738;SDS011;68816;45.558;10.070;2023-07-16T01:00:33;14.52;;;10.00;;
63738;SDS011;68816;45.558;10.070;2023-07-16T01:03:01;17.50;;;10.18;;
63738;SDS011;68816;45.558;10.070;2023-07-16T01:05:29;14.57;;;10.15;;
63738;SDS011;68816;45.558;10.070;2023-07-16T01:08:02;13.20;;;10.43;;
63738;SDS011;68816;45.558;10.070;2023-07-16T01:10:32;15.70;;;10.02;;
63738;SDS011;68816;45.558;10.070;2023-07-16T01:12:58;12.95;;;10.02;;
63738;SDS011;68816;45.558;10.070;2023-07-16T01:15:25;14.48;;;9.60;;
63738;SDS011;68816;45.558;10.070;2023-07-16T01:17:50;11.90;;;9.82;;
63738;SDS011;68816;45.558;10.070;2023-07-16T01:20:16;12.77;;;10.38;;
63738;SDS011;68816;45.558;10.070;2023-07-16T01:22:52;15.93;;;10.48;;
63738;SDS011;68816;45.558;10.070;2023-07-16T01:29:28;11.45;;;10.25;;
63738;SDS011;68816;45.558;10.070;2023-07-16T01:31:52;12.77;;;10.80;;
63738;SDS011;68816;45.558;10.070;2023-07-16T01:34:21;18.25;;;11.25;;
63738;SDS011;68816;45.558;10.070;2023-07-16T01:36:49;14.43;;;11.00;;
63738;SDS011;68816;45.558;10.070;2023-07-16T01:39:15;18.63;;;11.52;;
63738;SDS011;68816;45.558;10.070;2023-07-16T01:41:41;12.82;;;10.77;;
63738;SDS011;68816;45.558;10.070;2023-07-16T01:44:07;13.15;;;10.85;;
63738;SDS011;68816;45.558;10.070;2023-07-16T01:46:33;12.32;;;10.60;;
63738;SDS011;68816;45.558;10.070;2023-07-16T01:48:58;12.68;;;10.43;;
63738;SDS011;68816;45.558;10.070;2023-07-16T01:51:24;14.13;;;11.02;;
63738;SDS011;68816;45.558;10.070;2023-07-16T01:53:50;16.05;;;10.25;;
63738;SDS011;68816;45.558;10.070;2023-07-16T01:56:15;12.50;;;10.23;;
63738;SDS011;68816;45.558;10.070;2023-07-16T01:58:41;12.48;;;10.20;;
63738;SDS011;68816;45.558;10.070;2023-07-16T02:01:07;16.60;;;11.27;;
63738;SDS011;68816;45.558;10.070;2023-07-16T02:03:33;13.45;;;10.75;;
63738;SDS011;68816;45.558;10.070;2023-07-16T02:05:58;15.90;;;11.10;;
63738;SDS011;68816;45.558;10.070;2023-07-16T02:08:24;13.40;;;10.77;;
63738;SDS011;68816;45.558;10.070;2023-07-16T02:10:49;15.57;;;11.05;;
63738;SDS011;68816;45.558;10.070;2023-07-16T02:13:15;15.60;;;11.63;;
63738;SDS011;68816;45.558;10.070;2023-07-16T02:15:42;14.05;;;11.75;;
63738;SDS011;68816;45.558;10.070;2023-07-16T02:18:07;16.73;;;12.63;;
63738;SDS011;68816;45.558;10.070;2023-07-16T02:20:33;14.43;;;12.45;;
63738;SDS011;68816;45.558;10.070;2023-07-16T02:22:59;16.85;;;13.52;;
63738;SDS011;68816;45.558;10.070;2023-07-16T02:25:24;18.00;;;13.20;;
63738;SDS011;68816;45.558;10.070;2023-07-16T02:27:50;15.40;;;12.32;;
63738;SDS011;68816;45.558;10.070;2023-07-16T02:30:16;17.67;;;13.45;;
63738;SDS011;68816;45.558;10.070;2023-07-16T02:32:42;15.80;;;13.02;;
63738;SDS011;68816;45.558;10.070;2023-07-16T02:35:08;17.08;;;13.32;;
63738;SDS011;68816;45.558;10.070;2023-07-16T02:37:34;16.42;;;13.55;;
63738;SDS011;68816;45.558;10.070;2023-07-16T02:39:59;16.13;;;13.60;;
63738;SDS011;68816;45.558;10.070;2023-07-16T02:42:25;15.30;;;12.95;;
63738;SDS011;68816;45.558;10.070;2023-07-16T02:44:51;16.45;;;13.90;;
63738;SDS011;68816;45.558;10.070;2023-07-16T02:47:17;18.08;;;13.82;;
63738;SDS011;68816;45.558;10.070;2023-07-16T02:49:43;16.60;;;13.40;;
63738;SDS011;68816;45.558;10.070;2023-07-16T02:52:08;17.75;;;14.27;;
63738;SDS011;68816;45.558;10.070;2023-07-16T02:54:37;15.90;;;13.43;;
63738;SDS011;68816;45.558;10.070;2023-07-16T02:57:03;17.55;;;13.70;;
63738;SDS011;68816;45.558;10.070;2023-07-16T02:59:28;21.35;;;14.30;;
63738;SDS011;68816;45.558;10.070;2023-07-16T03:01:54;15.77;;;13.57;;
63738;SDS011;68816;45.558;10.070;2023-07-16T03:04:20;17.85;;;13.75;;
63738;SDS011;68816;45.558;10.070;2023-07-16T03:06:46;18.25;;;13.88;;
63738;SDS011;68816;45.558;10.070;2023-07-16T03:09:11;18.50;;;14.55;;
63738;SDS011;68816;45.558;10.070;2023-07-16T03:11:37;19.42;;;14.15;;
63738;SDS011;68816;45.558;10.070;2023-07-16T03:14:02;18.27;;;13.50;;
63738;SDS011;68816;45.558;10.070;2023-07-16T03:16:28;17.80;;;13.48;;
63738;SDS011;68816;45.558;10.070;2023-07-16T03:18:54;17.70;;;14.10;;
63738;SDS011;68816;45.558;10.070;2023-07-16T03:21:19;19.92;;;14.00;;
63738;SDS011;68816;45.558;10.070;2023-07-16T03:23:45;17.52;;;13.25;;
63738;SDS011;68816;45.558;10.070;2023-07-16T03:26:11;17.10;;;13.68;;
63738;SDS011;68816;45.558;10.070;2023-07-16T03:28:36;18.27;;;13.98;;
63738;SDS011;68816;45.558;10.070;2023-07-16T03:31:02;18.77;;;13.13;;
63738;SDS011;68816;45.558;10.070;2023-07-16T03:33:27;17.65;;;12.60;;
63738;SDS011;68816;45.558;10.070;2023-07-16T03:35:53;16.50;;;13.55;;
63738;SDS011;68816;45.558;10.070;2023-07-16T03:38:19;17.25;;;13.32;;
63738;SDS011;68816;45.558;10.070;2023-07-16T03:40:48;15.48;;;12.93;;
63738;SDS011;68816;45.558;10.070;2023-07-16T03:43:15;13.77;;;12.30;;
63738;SDS011;68816;45.558;10.070;2023-07-16T03:45:41;15.43;;;12.65;;
63738;SDS011;68816;45.558;10.070;2023-07-16T03:48:08;16.60;;;12.55;;
63738;SDS011;68816;45.558;10.070;2023-07-16T03:50:34;13.70;;;11.77;;
63738;SDS011;68816;45.558;10.070;2023-07-16T03:53:00;14.50;;;12.60;;
63738;SDS011;68816;45.558;10.070;2023-07-16T03:55:26;16.98;;;14.00;;
63738;SDS011;68816;45.558;10.070;2023-07-16T03:57:52;15.15;;;12.55;;
63738;SDS011;68816;45.558;10.070;2023-07-16T04:00:17;16.38;;;12.75;;
63738;SDS011;68816;45.558;10.070;2023-07-16T04:02:43;14.73;;;12.48;;
63738;SDS011;68816;45.558;10.070;2023-07-16T04:05:09;17.30;;;12.48;;
63738;SDS011;68816;45.558;10.070;2023-07-16T04:07:35;16.17;;;13.25;;
63738;SDS011;68816;45.558;10.070;2023-07-16T04:10:01;17.02;;;12.88;;
63738;SDS011;68816;45.558;10.070;2023-07-16T04:12:26;14.32;;;12.82;;
63738;SDS011;68816;45.558;10.070;2023-07-16T04:14:56;17.85;;;12.25;;
63738;SDS011;68816;45.558;10.070;2023-07-16T04:17:23;16.75;;;12.95;;
63738;SDS011;68816;45.558;10.070;2023-07-16T04:19:49;14.88;;;12.55;;
63738;SDS011;68816;45.558;10.070;2023-07-16T04:22:15;16.00;;;13.77;;
63738;SDS011;68816;45.558;10.070;2023-07-16T04:24:40;19.17;;;13.60;;
63738;SDS011;68816;45.558;10.070;2023-07-16T04:27:06;20.65;;;12.95;;
63738;SDS011;68816;45.558;10.070;2023-07-16T04:29:31;15.95;;;13.93;;
63738;SDS011;68816;45.558;10.070;2023-07-16T04:31:57;17.17;;;13.00;;
63738;SDS011;68816;45.558;10.070;2023-07-16T04:34:23;17.48;;;12.88;;
63738;SDS011;68816;45.558;10.070;2023-07-16T04:36:49;15.07;;;13.55;;
63738;SDS011;68816;45.558;10.070;2023-07-16T04:39:14;15.38;;;12.63;;
63738;SDS011;68816;45.558;10.070;2023-07-16T04:41:40;14.80;;;12.93;;
63738;SDS011;68816;45.558;10.070;2023-07-16T04:44:05;16.85;;;13.02;;
63738;SDS011;68816;45.558;10.070;2023-07-16T04:46:31;18.02;;;13.00;;
63738;SDS011;68816;45.558;10.070;2023-07-16T04:48:56;16.55;;;12.75;;
63738;SDS011;68816;45.558;10.070;2023-07-16T04:51:22;16.45;;;13.10;;
63738;SDS011;68816;45.558;10.070;2023-07-16T04:53:48;15.82;;;13.48;;
63738;SDS011;68816;45.558;10.070;2023-07-16T04:56:14;16.13;;;13.02;;
63738;SDS011;68816;45.558;10.070;2023-07-16T04:58:41;16.17;;;12.40;;
63738;SDS011;68816;45.558;10.070;2023-07-16T05:01:08;17.65;;;13.18;;
63738;SDS011;68816;45.558;10.070;2023-07-16T05:03:34;15.77;;;12.95;;
63738;SDS011;68816;45.558;10.070;2023-07-16T05:06:00;16.08;;;12.65;;
63738;SDS011;68816;45.558;10.070;2023-07-16T05:08:26;15.57;;;12.55;;
63738;SDS011;68816;45.558;10.070;2023-07-16T05:10:51;14.43;;;12.07;;
63738;SDS011;68816;45.558;10.070;2023-07-16T05:13:17;17.15;;;12.55;;
63738;SDS011;68816;45.558;10.070;2023-07-16T05:15:43;14.20;;;11.95;;
63738;SDS011;68816;45.558;10.070;2023-07-16T05:18:09;16.27;;;12.98;;
63738;SDS011;68816;45.558;10.070;2023-07-16T05:20:35;16.77;;;12.82;;
63738;SDS011;68816;45.558;10.070;2023-07-16T05:23:00;19.90;;;12.70;;
63738;SDS011;68816;45.558;10.070;2023-07-16T05:25:26;14.60;;;11.70;;
63738;SDS011;68816;45.558;10.070;2023-07-16T05:27:52;15.48;;;12.18;;
63738;SDS011;68816;45.558;10.070;2023-07-16T05:30:18;13.98;;;11.68;;
63738;SDS011;68816;45.558;10.070;2023-07-16T05:32:44;16.95;;;12.77;;
63738;SDS011;68816;45.558;10.070;2023-07-16T05:35:09;17.63;;;11.85;;
63738;SDS011;68816;45.558;10.070;2023-07-16T05:37:35;18.35;;;12.23;;
63738;SDS011;68816;45.558;10.070;2023-07-16T05:40:01;18.45;;;12.45;;
63738;SDS011;68816;45.558;10.070;2023-07-16T05:42:28;17.08;;;11.05;;
63738;SDS011;68816;45.558;10.070;2023-07-16T05:44:53;13.77;;;11.25;;
63738;SDS011;68816;45.558;10.070;2023-07-16T05:47:19;15.68;;;11.88;;
63738;SDS011;68816;45.558;10.070;2023-07-16T05:49:45;15.48;;;11.65;;
63738;SDS011;68816;45.558;10.070;2023-07-16T05:52:10;15.88;;;11.68;;
63738;SDS011;68816;45.558;10.070;2023-07-16T05:54:36;13.80;;;11.10;;
63738;SDS011;68816;45.558;10.070;2023-07-16T05:57:02;14.38;;;11.77;;
63738;SDS011;68816;45.558;10.070;2023-07-16T05:59:28;14.35;;;11.57;;
63738;SDS011;68816;45.558;10.070;2023-07-16T06:01:53;13.18;;;10.77;;
63738;SDS011;68816;45.558;10.070;2023-07-16T06:04:20;13.20;;;11.15;;
63738;SDS011;68816;45.558;10.070;2023-07-16T06:06:46;17.55;;;11.70;;
63738;SDS011;68816;45.558;10.070;2023-07-16T06:09:11;19.08;;;12.07;;
63738;SDS011;68816;45.558;10.070;2023-07-16T06:11:37;17.27;;;11.50;;
63738;SDS011;68816;45.558;10.070;2023-07-16T06:14:02;12.90;;;10.95;;
63738;SDS011;68816;45.558;10.070;2023-07-16T06:16:28;17.20;;;10.93;;
63738;SDS011;68816;45.558;10.070;2023-07-16T06:18:54;17.20;;;11.10;;
63738;SDS011;68816;45.558;10.070;2023-07-16T06:21:19;13.15;;;10.35;;
63738;SDS011;68816;45.558;10.070;2023-07-16T06:23:45;14.88;;;10.32;;
63738;SDS011;68816;45.558;10.070;2023-07-16T06:26:10;14.88;;;10.63;;
63738;SDS011;68816;45.558;10.070;2023-07-16T06:28:36;12.93;;;9.95;;
63738;SDS011;68816;45.558;10.070;2023-07-16T06:31:01;15.93;;;9.65;;
63738;SDS011;68816;45.558;10.070;2023-07-16T06:33:27;12.60;;;9.75;;
63738;SDS011;68816;45.558;10.070;2023-07-16T06:35:53;13.30;;;9.43;;
63738;SDS011;68816;45.558;10.070;2023-07-16T06:38:19;17.50;;;10.40;;
63738;SDS011;68816;45.558;10.070;2023-07-16T06:40:47;16.95;;;8.75;;
63738;SDS011;68816;45.558;10.070;2023-07-16T06:43:14;10.63;;;8.18;;
63738;SDS011;68816;45.558;10.070;2023-07-16T06:45:40;10.75;;;8.77;;
63738;SDS011;68816;45.558;10.070;2023-07-16T06:48:06;15.63;;;8.55;;
63738;SDS011;68816;45.558;10.070;2023-07-16T06:50:32;13.48;;;8.77;;
63738;SDS011;68816;45.558;10.070;2023-07-16T06:52:57;12.95;;;8.68;;
63738;SDS011;68816;45.558;10.070;2023-07-16T06:55:23;14.80;;;9.70;;
63738;SDS011;68816;45.558;10.070;2023-07-16T06:57:48;13.15;;;9.30;;
63738;SDS011;68816;45.558;10.070;2023-07-16T07:00:14;13.07;;;10.13;;
63738;SDS011;68816;45.558;10.070;2023-07-16T07:02:40;18.58;;;9.35;;
63738;SDS011;68816;45.558;10.070;2023-07-16T07:05:06;16.48;;;10.25;;
63738;SDS011;68816;45.558;10.070;2023-07-16T07:07:32;12.32;;;9.38;;
63738;SDS011;68816;45.558;10.070;2023-07-16T07:09:57;14.57;;;10.43;;
63738;SDS011;68816;45.558;10.070;2023-07-16T07:12:23;17.63;;;9.98;;
63738;SDS011;68816;45.558;10.070;2023-07-16T07:14:48;14.60;;;9.88;;
63738;SDS011;68816;45.558;10.070;2023-07-16T07:17:14;13.93;;;9.77;;
63738;SDS011;68816;45.558;10.070;2023-07-16T07:19:40;14.57;;;9.35;;
63738;SDS011;68816;45.558;10.070;2023-07-16T07:22:06;17.42;;;9.38;;
63738;SDS011;68816;45.558;10.070;2023-07-16T07:24:32;12.40;;;9.90;;
63738;SDS011;68816;45.558;10.070;2023-07-16T07:26:58;18.50;;;10.20;;
63738;SDS011;68816;45.558;10.070;2023-07-16T07:29:23;13.38;;;9.82;;
63738;SDS011;68816;45.558;10.070;2023-07-16T07:31:49;15.60;;;10.90;;
63738;SDS011;68816;45.558;10.070;2023-07-16T07:34:15;16.73;;;10.60;;
63738;SDS011;68816;45.558;10.070;2023-07-16T07:36:41;15.48;;;10.90;;
63738;SDS011;68816;45.558;10.070;2023-07-16T07:39:07;11.57;;;10.00;;
63738;SDS011;68816;45.558;10.070;2023-07-16T07:41:32;14.60;;;10.88;;
63738;SDS011;68816;45.558;10.070;2023-07-16T07:43:58;18.95;;;10.50;;
63738;SDS011;68816;45.558;10.070;2023-07-16T07:46:24;17.40;;;10.88;;
63738;SDS011;68816;45.558;10.070;2023-07-16T07:48:49;15.65;;;11.50;;
63738;SDS011;68816;45.558;10.070;2023-07-16T07:51:15;16.88;;;11.07;;
63738;SDS011;68816;45.558;10.070;2023-07-16T07:53:40;16.35;;;11.45;;
63738;SDS011;68816;45.558;10.070;2023-07-16T07:56:06;14.85;;;10.77;;
63738;SDS011;68816;45.558;10.070;2023-07-16T07:58:32;13.73;;;10.73;;
63738;SDS011;68816;45.558;10.070;2023-07-16T08:01:03;19.00;;;10.02;;
63738;SDS011;68816;45.558;10.070;2023-07-16T08:03:32;14.65;;;10.30;;
63738;SDS011;68816;45.558;10.070;2023-07-16T08:05:59;15.48;;;10.90;;
63738;SDS011;68816;45.558;10.070;2023-07-16T08:08:24;14.10;;;10.73;;
63738;SDS011;68816;45.558;10.070;2023-07-16T08:10:50;16.40;;;10.27;;
63738;SDS011;68816;45.558;10.070;2023-07-16T08:13:16;13.63;;;10.13;;
63738;SDS011;68816;45.558;10.070;2023-07-16T08:15:41;15.82;;;10.30;;
63738;SDS011;68816;45.558;10.070;2023-07-16T08:18:07;16.60;;;10.75;;
63738;SDS011;68816;45.558;10.070;2023-07-16T08:20:32;13.30;;;10.73;;
63738;SDS011;68816;45.558;10.070;2023-07-16T08:23:00;17.45;;;11.80;;
63738;SDS011;68816;45.558;10.070;2023-07-16T08:25:26;13.15;;;10.45;;
63738;SDS011;68816;45.558;10.070;2023-07-16T08:27:52;17.60;;;11.25;;
63738;SDS011;68816;45.558;10.070;2023-07-16T08:30:17;16.75;;;11.00;;
63738;SDS011;68816;45.558;10.070;2023-07-16T08:32:43;18.67;;;12.23;;
63738;SDS011;68816;45.558;10.070;2023-07-16T08:35:08;19.17;;;11.73;;
63738;SDS011;68816;45.558;10.070;2023-07-16T08:37:41;17.00;;;12.38;;
63738;SDS011;68816;45.558;10.070;2023-07-16T08:40:06;15.20;;;12.10;;
63738;SDS011;68816;45.558;10.070;2023-07-16T08:42:36;16.17;;;11.02;;
63738;SDS011;68816;45.558;10.070;2023-07-16T08:45:04;17.45;;;11.35;;
63738;SDS011;68816;45.558;10.070;2023-07-16T08:47:35;19.90;;;14.68;;
63738;SDS011;68816;45.558;10.070;2023-07-16T08:50:01;20.50;;;11.48;;
63738;SDS011;68816;45.558;10.070;2023-07-16T08:52:27;15.57;;;10.70;;
63738;SDS011;68816;45.558;10.070;2023-07-16T08:54:53;13.13;;;9.77;;
63738;SDS011;68816;45.558;10.070;2023-07-16T08:57:19;13.68;;;10.70;;
63738;SDS011;68816;45.558;10.070;2023-07-16T08:59:48;16.52;;;10.48;;
63738;SDS011;68816;45.558;10.070;2023-07-16T09:02:18;18.85;;;11.30;;
63738;SDS011;68816;45.558;10.070;2023-07-16T09:04:47;13.88;;;10.18;;
63738;SDS011;68816;45.558;10.070;2023-07-16T09:07:14;17.15;;;11.20;;
63738;SDS011;68816;45.558;10.070;2023-07-16T09:09:40;21.92;;;10.35;;
63738;SDS011;68816;45.558;10.070;2023-07-16T09:12:06;15.68;;;11.55;;
63738;SDS011;68816;45.558;10.070;2023-07-16T09:14:36;11.52;;;10.32;;
63738;SDS011;68816;45.558;10.070;2023-07-16T09:17:01;15.77;;;10.32;;
63738;SDS011;68816;45.558;10.070;2023-07-16T09:19:27;16.75;;;10.63;;
63738;SDS011;68816;45.558;10.070;2023-07-16T09:21:57;19.38;;;10.60;;
63738;SDS011;68816;45.558;10.070;2023-07-16T09:24:23;14.90;;;10.25;;
63738;SDS011;68816;45.558;10.070;2023-07-16T09:29:18;17.25;;;9.50;;
63738;SDS011;68816;45.558;10.070;2023-07-16T09:31:53;15.07;;;9.52;;
63738;SDS011;68816;45.558;10.070;2023-07-16T09:36:53;16.25;;;9.05;;
63738;SDS011;68816;45.558;10.070;2023-07-16T09:39:19;11.65;;;9.30;;
63738;SDS011;68816;45.558;10.070;2023-07-16T09:41:46;14.60;;;9.98;;
63738;SDS011;68816;45.558;10.070;2023-07-16T09:44:13;13.10;;;9.25;;
63738;SDS011;68816;45.558;10.070;2023-07-16T09:46:39;13.30;;;9.15;;
63738;SDS011;68816;45.558;10.070;2023-07-16T09:49:06;13.90;;;8.13;;
63738;SDS011;68816;45.558;10.070;2023-07-16T09:51:32;12.73;;;7.70;;
63738;SDS011;68816;45.558;10.070;2023-07-16T09:54:00;11.52;;;8.18;;
63738;SDS011;68816;45.558;10.070;2023-07-16T09:56:27;11.38;;;8.48;;
63738;SDS011;68816;45.558;10.070;2023-07-16T09:59:10;9.98;;;8.65;;
63738;SDS011;68816;45.558;10.070;2023-07-16T10:01:40;16.00;;;11.40;;
63738;SDS011;68816;45.558;10.070;2023-07-16T10:04:12;16.00;;;9.35;;
63738;SDS011;68816;45.558;10.070;2023-07-16T10:09:31;21.58;;;15.48;;
63738;SDS011;68816;45.558;10.070;2023-07-16T10:14:45;13.70;;;10.05;;
63738;SDS011;68816;45.558;10.070;2023-07-16T10:17:18;12.27;;;9.30;;
63738;SDS011;68816;45.558;10.070;2023-07-16T10:20:00;10.88;;;8.90;;
63738;SDS011;68816;45.558;10.070;2023-07-16T10:22:40;14.02;;;9.23;;
63738;SDS011;68816;45.558;10.070;2023-07-16T10:25:08;14.20;;;8.68;;
63738;SDS011;68816;45.558;10.070;2023-07-16T10:27:35;14.02;;;9.20;;
63738;SDS011;68816;45.558;10.070;2023-07-16T10:30:02;9.63;;;8.38;;
63738;SDS011;68816;45.558;10.070;2023-07-16T10:32:30;10.80;;;7.35;;
63738;SDS011;68816;45.558;10.070;2023-07-16T10:34:57;15.25;;;8.52;;
63738;SDS011;68816;45.558;10.070;2023-07-16T10:37:23;9.07;;;6.57;;
63738;SDS011;68816;45.558;10.070;2023-07-16T10:39:50;9.48;;;6.60;;
63738;SDS011;68816;45.558;10.070;2023-07-16T10:42:17;10.63;;;7.55;;
63738;SDS011;68816;45.558;10.070;2023-07-16T10:44:44;11.32;;;8.05;;
63738;SDS011;68816;45.558;10.070;2023-07-16T10:49:46;6.10;;;5.45;;
63738;SDS011;68816;45.558;10.070;2023-07-16T10:52:12;5.20;;;4.63;;
63738;SDS011;68816;45.558;10.070;2023-07-16T10:54:37;8.18;;;5.97;;
63738;SDS011;68816;45.558;10.070;2023-07-16T10:57:05;10.70;;;6.65;;
63738;SDS011;68816;45.558;10.070;2023-07-16T10:59:31;13.13;;;8.30;;
63738;SDS011;68816;45.558;10.070;2023-07-16T11:01:57;11.73;;;9.07;;
63738;SDS011;68816;45.558;10.070;2023-07-16T11:04:23;8.15;;;5.25;;
63738;SDS011;68816;45.558;10.070;2023-07-16T11:06:49;6.55;;;4.50;;
63738;SDS011;68816;45.558;10.070;2023-07-16T11:09:15;11.80;;;5.75;;
63738;SDS011;68816;45.558;10.070;2023-07-16T11:11:41;8.85;;;5.30;;
63738;SDS011;68816;45.558;10.070;2023-07-16T11:14:07;8.23;;;4.60;;
63738;SDS011;68816;45.558;10.070;2023-07-16T11:16:34;6.88;;;4.82;;
63738;SDS011;68816;45.558;10.070;2023-07-16T11:19:09;12.15;;;6.22;;
63738;SDS011;68816;45.558;10.070;2023-07-16T11:21:34;9.35;;;5.35;;
63738;SDS011;68816;45.558;10.070;2023-07-16T11:24:07;11.07;;;5.75;;
63738;SDS011;68816;45.558;10.070;2023-07-16T11:26:38;9.27;;;5.88;;
63738;SDS011;68816;45.558;10.070;2023-07-16T11:29:14;11.23;;;6.90;;
63738;SDS011;68816;45.558;10.070;2023-07-16T11:31:40;11.05;;;6.53;;
63738;SDS011;68816;45.558;10.070;2023-07-16T11:34:14;8.70;;;5.88;;
63738;SDS011;68816;45.558;10.070;2023-07-16T11:36:40;9.88;;;5.68;;
63738;SDS011;68816;45.558;10.070;2023-07-16T11:39:06;9.88;;;5.78;;
63738;SDS011;68816;45.558;10.070;2023-07-16T11:41:31;9.60;;;5.65;;
63738;SDS011;68816;45.558;10.070;2023-07-16T11:44:01;10.60;;;6.00;;
63738;SDS011;68816;45.558;10.070;2023-07-16T11:46:30;9.48;;;6.13;;
63738;SDS011;68816;45.558;10.070;2023-07-16T11:48:58;11.50;;;7.15;;
63738;SDS011;68816;45.558;10.070;2023-07-16T11:51:24;9.65;;;7.47;;
63738;SDS011;68816;45.558;10.070;2023-07-16T11:53:50;12.20;;;7.30;;
63738;SDS011;68816;45.558;10.070;2023-07-16T11:56:15;11.00;;;7.03;;
63738;SDS011;68816;45.558;10.070;2023-07-16T11:58:41;9.52;;;6.18;;
63738;SDS011;68816;45.558;10.070;2023-07-16T12:01:07;11.82;;;8.50;;
63738;SDS011;68816;45.558;10.070;2023-07-16T12:03:33;10.32;;;7.70;;
63738;SDS011;68816;45.558;10.070;2023-07-16T12:05:59;8.52;;;7.03;;
63738;SDS011;68816;45.558;10.070;2023-07-16T12:08:24;13.10;;;8.35;;
63738;SDS011;68816;45.558;10.070;2023-07-16T12:10:50;12.02;;;7.55;;
63738;SDS011;68816;45.558;10.070;2023-07-16T12:13:16;13.50;;;8.00;;
63738;SDS011;68816;45.558;10.070;2023-07-16T12:15:41;15.10;;;7.72;;
63738;SDS011;68816;45.558;10.070;2023-07-16T12:18:07;11.23;;;7.90;;
63738;SDS011;68816;45.558;10.070;2023-07-16T12:20:33;10.70;;;8.20;;
63738;SDS011;68816;45.558;10.070;2023-07-16T12:23:01;13.43;;;8.55;;
63738;SDS011;68816;45.558;10.070;2023-07-16T12:25:28;9.23;;;7.65;;
63738;SDS011;68816;45.558;10.070;2023-07-16T12:27:53;13.52;;;7.15;;
63738;SDS011;68816;45.558;10.070;2023-07-16T12:30:19;9.70;;;6.40;;
63738;SDS011;68816;45.558;10.070;2023-07-16T12:32:45;11.57;;;6.55;;
63738;SDS011;68816;45.558;10.070;2023-07-16T12:35:10;10.43;;;5.47;;
63738;SDS011;68816;45.558;10.070;2023-07-16T12:37:36;13.30;;;6.32;;
63738;SDS011;68816;45.558;10.070;2023-07-16T12:40:01;12.73;;;5.97;;
63738;SDS011;68816;45.558;10.070;2023-07-16T12:42:28;11.80;;;7.47;;
63738;SDS011;68816;45.558;10.070;2023-07-16T12:44:54;9.98;;;6.30;;
63738;SDS011;68816;45.558;10.070;2023-07-16T12:47:19;10.68;;;6.50;;
63738;SDS011;68816;45.558;10.070;2023-07-16T12:49:45;8.43;;;6.35;;
63738;SDS011;68816;45.558;10.070;2023-07-16T12:52:10;9.07;;;7.38;;
63738;SDS011;68816;45.558;10.070;2023-07-16T12:54:36;10.10;;;6.63;;
63738;SDS011;68816;45.558;10.070;2023-07-16T12:57:02;11.50;;;7.20;;
63738;SDS011;68816;45.558;10.070;2023-07-16T12:59:27;12.88;;;7.47;;
63738;SDS011;68816;45.558;10.070;2023-07-16T13:01:53;10.20;;;6.45;;
63738;SDS011;68816;45.558;10.070;2023-07-16T13:04:19;10.40;;;6.03;;
63738;SDS011;68816;45.558;10.070;2023-07-16T13:06:44;13.50;;;6.30;;
63738;SDS011;68816;45.558;10.070;2023-07-16T13:09:13;9.43;;;5.50;;
63738;SDS011;68816;45.558;10.070;2023-07-16T13:11:39;9.05;;;5.53;;
63738;SDS011;68816;45.558;10.070;2023-07-16T13:14:05;12.45;;;5.97;;
63738;SDS011;68816;45.558;10.070;2023-07-16T13:16:30;8.80;;;5.57;;
63738;SDS011;68816;45.558;10.070;2023-07-16T13:18:56;6.38;;;5.15;;
63738;SDS011;68816;45.558;10.070;2023-07-16T13:21:21;8.77;;;5.10;;
63738;SDS011;68816;45.558;10.070;2023-07-16T13:23:47;9.68;;;5.32;;
63738;SDS011;68816;45.558;10.070;2023-07-16T13:26:12;8.35;;;5.22;;
63738;SDS011;68816;45.558;10.070;2023-07-16T13:28:38;8.65;;;5.13;;
63738;SDS011;68816;45.558;10.070;2023-07-16T13:31:03;7.55;;;4.80;;
63738;SDS011;68816;45.558;10.070;2023-07-16T13:33:29;9.30;;;5.28;;
63738;SDS011;68816;45.558;10.070;2023-07-16T13:35:55;7.82;;;4.97;;
63738;SDS011;68816;45.558;10.070;2023-07-16T13:38:22;8.10;;;5.45;;
63738;SDS011;68816;45.558;10.070;2023-07-16T13:40:47;10.07;;;5.40;;
63738;SDS011;68816;45.558;10.070;2023-07-16T13:43:13;8.95;;;5.05;;
63738;SDS011;68816;45.558;10.070;2023-07-16T13:45:39;9.07;;;5.72;;
63738;SDS011;68816;45.558;10.070;2023-07-16T13:48:04;8.95;;;5.03;;
63738;SDS011;68816;45.558;10.070;2023-07-16T13:50:30;10.50;;;4.85;;
63738;SDS011;68816;45.558;10.070;2023-07-16T13:52:56;9.35;;;4.68;;
63738;SDS011;68816;45.558;10.070;2023-07-16T13:55:21;11.15;;;4.95;;
63738;SDS011;68816;45.558;10.070;2023-07-16T13:57:47;10.23;;;5.03;;
63738;SDS011;68816;45.558;10.070;2023-07-16T14:00:13;8.30;;;4.30;;
63738;SDS011;68816;45.558;10.070;2023-07-16T14:02:42;8.13;;;4.28;;
63738;SDS011;68816;45.558;10.070;2023-07-16T14:05:08;7.95;;;4.85;;
63738;SDS011;68816;45.558;10.070;2023-07-16T14:07:34;9.35;;;4.65;;
63738;SDS011;68816;45.558;10.070;2023-07-16T14:09:59;8.98;;;5.07;;
63738;SDS011;68816;45.558;10.070;2023-07-16T14:12:25;8.98;;;4.80;;
63738;SDS011;68816;45.558;10.070;2023-07-16T14:14:50;11.45;;;5.80;;
63738;SDS011;68816;45.558;10.070;2023-07-16T14:17:16;9.98;;;5.45;;
63738;SDS011;68816;45.558;10.070;2023-07-16T14:19:41;6.25;;;4.93;;
63738;SDS011;68816;45.558;10.070;2023-07-16T14:22:07;9.13;;;4.88;;
63738;SDS011;68816;45.558;10.070;2023-07-16T14:24:36;9.32;;;5.10;;
63738;SDS011;68816;45.558;10.070;2023-07-16T14:27:02;7.07;;;5.00;;
63738;SDS011;68816;45.558;10.070;2023-07-16T14:29:28;10.25;;;5.20;;